createdAt,value
2019-06-26T00:00:40.273Z,1016.48
2019-06-26T00:01:40.253Z,1016.54
2019-06-26T00:02:40.248Z,1016.51
2019-06-26T00:03:40.231Z,1016.52
2019-06-26T00:04:40.218Z,1016.49
2019-06-26T00:05:40.209Z,1016.49
2019-06-26T00:06:40.197Z,1016.50
2019-06-26T00:07:40.208Z,1016.50
2019-06-26T00:08:40.178Z,1016.47
2019-06-26T00:09:40.176Z,1016.50
2019-06-26T00:10:40.149Z,1016.43
2019-06-26T00:11:40.139Z,1016.47
2019-06-26T00:12:40.160Z,1016.47
2019-06-26T00:13:40.119Z,1016.43
2019-06-26T00:14:40.113Z,1016.43
2019-06-26T00:15:40.100Z,1016.46
2019-06-26T00:16:40.093Z,1016.45
2019-06-26T00:17:40.094Z,1016.45
2019-06-26T00:18:40.069Z,1016.45
2019-06-26T00:19:40.054Z,1016.45
2019-06-26T00:20:40.051Z,1016.42
2019-06-26T00:21:40.057Z,1016.43
2019-06-26T00:22:40.044Z,1016.39
2019-06-26T00:23:40.011Z,1016.46
2019-06-26T00:24:39.995Z,1016.40
2019-06-26T00:25:39.989Z,1016.46
2019-06-26T00:26:39.985Z,1016.42
2019-06-26T00:27:39.975Z,1016.47
2019-06-26T00:28:39.955Z,1016.42
2019-06-26T00:29:39.960Z,1016.47
2019-06-26T00:30:39.936Z,1016.44
2019-06-26T00:31:39.923Z,1016.40
2019-06-26T00:32:39.928Z,1016.44
2019-06-26T00:33:39.900Z,1016.46
2019-06-26T00:34:39.889Z,1016.42
2019-06-26T00:35:39.877Z,1016.44
2019-06-26T00:36:39.866Z,1016.37
2019-06-26T00:37:39.868Z,1016.34
2019-06-26T00:38:40.260Z,1016.39
2019-06-26T00:39:39.835Z,1016.30
2019-06-26T00:40:39.829Z,1016.34
2019-06-26T00:41:39.814Z,1016.34
2019-06-26T00:42:39.816Z,1016.35
2019-06-26T00:43:42.679Z,1016.34
2019-06-26T00:44:39.788Z,1016.41
2019-06-26T00:45:39.772Z,1016.41
2019-06-26T00:46:39.758Z,1016.36
2019-06-26T00:47:39.764Z,1016.36
2019-06-26T00:48:39.743Z,1016.39
2019-06-26T00:49:39.727Z,1016.39
2019-06-26T00:50:39.715Z,1016.37
2019-06-26T00:51:39.701Z,1016.31
2019-06-26T00:52:39.704Z,1016.34
2019-06-26T00:53:39.685Z,1016.36
2019-06-26T00:54:39.674Z,1016.36
2019-06-26T00:55:39.664Z,1016.36
2019-06-26T00:56:39.644Z,1016.37
2019-06-26T00:57:39.654Z,1016.32
2019-06-26T00:58:39.631Z,1016.39
2019-06-26T00:59:39.628Z,1016.33
2019-06-26T01:00:39.625Z,1016.35
2019-06-26T01:01:39.718Z,1016.35
2019-06-26T01:02:39.596Z,1016.43
2019-06-26T01:03:39.576Z,1016.32
2019-06-26T01:04:39.620Z,1016.36
2019-06-26T01:05:39.552Z,1016.33
2019-06-26T01:06:39.565Z,1016.35
2019-06-26T01:07:39.536Z,1016.36
2019-06-26T01:08:39.517Z,1016.33
2019-06-26T01:09:39.504Z,1016.28
2019-06-26T01:10:39.495Z,1016.32
2019-06-26T01:11:39.485Z,1016.32
2019-06-26T01:12:39.488Z,1016.22
2019-06-26T01:13:39.467Z,1016.25
2019-06-26T01:14:39.450Z,1016.28
2019-06-26T01:15:39.442Z,1016.25
2019-06-26T01:16:39.434Z,1016.23
2019-06-26T01:17:39.548Z,1016.25
2019-06-26T01:18:39.411Z,1016.20
2019-06-26T01:19:39.408Z,1016.19
2019-06-26T01:20:39.384Z,1016.20
2019-06-26T01:21:39.384Z,1016.22
2019-06-26T01:22:39.386Z,1016.22
2019-06-26T01:23:39.349Z,1016.22
2019-06-26T01:24:39.343Z,1016.22
2019-06-26T01:25:39.332Z,1016.23
2019-06-26T01:26:39.323Z,1016.23
2019-06-26T01:27:39.319Z,1016.18
2019-06-26T01:28:39.300Z,1016.20
2019-06-26T01:29:39.289Z,1016.23
2019-06-26T01:30:39.275Z,1016.28
2019-06-26T01:31:39.268Z,1016.22
2019-06-26T01:32:39.271Z,1016.20
2019-06-26T01:33:39.245Z,1016.20
2019-06-26T01:34:39.231Z,1016.20
2019-06-26T01:35:39.220Z,1016.15
2019-06-26T01:36:39.208Z,1016.22
2019-06-26T01:37:39.217Z,1016.19
2019-06-26T01:38:39.187Z,1016.16
2019-06-26T01:39:39.177Z,1016.20
2019-06-26T01:40:39.170Z,1016.15
2019-06-26T01:41:39.157Z,1016.15
2019-06-26T01:42:39.178Z,1016.18
2019-06-26T01:43:39.148Z,1016.15
2019-06-26T01:44:39.125Z,1016.17
2019-06-26T01:45:39.133Z,1016.18
2019-06-26T01:46:39.104Z,1016.25
2019-06-26T01:47:39.108Z,1016.19
2019-06-26T01:48:39.079Z,1016.18
2019-06-26T01:49:39.069Z,1016.16
2019-06-26T01:50:39.057Z,1016.13
2019-06-26T01:51:39.071Z,1016.15
2019-06-26T01:52:39.056Z,1016.15
2019-06-26T01:53:39.024Z,1016.11
2019-06-26T01:54:39.014Z,1016.11
2019-06-26T01:55:39.007Z,1016.15
2019-06-26T01:56:39.001Z,1016.15
2019-06-26T01:57:38.995Z,1016.15
2019-06-26T01:58:38.980Z,1016.15
2019-06-26T01:59:38.967Z,1016.16
2019-06-26T02:00:38.962Z,1016.21
2019-06-26T02:01:38.934Z,1016.13
2019-06-26T02:02:38.941Z,1016.14
2019-06-26T02:03:38.915Z,1016.12
2019-06-26T02:04:38.914Z,1016.14
2019-06-26T02:05:38.895Z,1016.13
2019-06-26T02:06:38.886Z,1016.16
2019-06-26T02:07:38.891Z,1016.14
2019-06-26T02:08:38.885Z,1016.09
2019-06-26T02:09:38.857Z,1016.12
2019-06-26T02:10:38.847Z,1016.14
2019-06-26T02:11:38.831Z,1016.12
2019-06-26T02:12:38.843Z,1016.13
2019-06-26T02:13:38.807Z,1016.08
2019-06-26T02:14:38.794Z,1016.13
2019-06-26T02:15:38.791Z,1016.07
2019-06-26T02:16:38.777Z,1016.09
2019-06-26T02:17:38.780Z,1016.04
2019-06-26T02:18:38.749Z,1016.08
2019-06-26T02:19:38.742Z,1016.07
2019-06-26T02:20:38.733Z,1016.11
2019-06-26T02:21:38.720Z,1016.05
2019-06-26T02:22:38.725Z,1016.08
2019-06-26T02:23:38.702Z,1016.03
2019-06-26T02:24:38.689Z,1016.02
2019-06-26T02:25:38.675Z,1016.09
2019-06-26T02:26:38.666Z,1016.07
2019-06-26T02:27:38.673Z,1016.06
2019-06-26T02:28:38.639Z,1016.05
2019-06-26T02:29:38.629Z,1015.98
2019-06-26T02:30:38.617Z,1016.01
2019-06-26T02:31:38.619Z,1015.99
2019-06-26T02:32:38.631Z,1015.98
2019-06-26T02:33:38.591Z,1015.95
2019-06-26T02:34:38.580Z,1015.97
2019-06-26T02:35:38.567Z,1015.98
2019-06-26T02:36:38.568Z,1015.98
2019-06-26T02:37:38.563Z,1015.99
2019-06-26T02:38:38.551Z,1015.91
2019-06-26T02:39:38.526Z,1015.96
2019-06-26T02:40:38.579Z,1015.84
2019-06-26T02:41:38.498Z,1015.91
2019-06-26T02:42:38.516Z,1015.89
2019-06-26T02:43:38.514Z,1015.83
2019-06-26T02:44:52.057Z,1015.87
2019-06-26T02:45:39.456Z,1015.86
2019-06-26T02:46:38.451Z,1015.87
2019-06-26T02:47:38.437Z,1015.80
2019-06-26T02:48:38.434Z,1015.83
2019-06-26T02:49:38.428Z,1015.83
2019-06-26T02:50:38.399Z,1015.80
2019-06-26T02:51:38.457Z,1015.83
2019-06-26T02:52:38.415Z,1015.82
2019-06-26T02:53:38.373Z,1015.75
2019-06-26T02:54:38.374Z,1015.75
2019-06-26T02:55:38.345Z,1015.80
2019-06-26T02:56:38.332Z,1015.74
2019-06-26T02:57:38.328Z,1015.80
2019-06-26T02:58:38.318Z,1015.79
2019-06-26T02:59:38.327Z,1015.74
2019-06-26T03:00:38.294Z,1015.74
2019-06-26T03:01:38.283Z,1015.76
2019-06-26T03:02:38.281Z,1015.71
2019-06-26T03:03:38.282Z,1015.81
2019-06-26T03:04:38.283Z,1015.79
2019-06-26T03:05:38.238Z,1015.66
2019-06-26T03:06:38.227Z,1015.72
2019-06-26T03:07:38.226Z,1015.70
2019-06-26T03:08:38.201Z,1015.79
2019-06-26T03:09:38.197Z,1015.80
2019-06-26T03:10:38.266Z,1015.79
2019-06-26T03:11:38.174Z,1015.76
2019-06-26T03:12:38.160Z,1015.71
2019-06-26T03:13:38.152Z,1015.77
2019-06-26T03:14:38.141Z,1015.71
2019-06-26T03:15:38.165Z,1015.74
2019-06-26T03:16:38.118Z,1015.74
2019-06-26T03:17:51.010Z,1015.68
2019-06-26T03:18:39.095Z,1015.68
2019-06-26T03:19:38.082Z,1015.67
2019-06-26T03:20:38.088Z,1015.66
2019-06-26T03:21:38.062Z,1015.72
2019-06-26T03:22:38.047Z,1015.71
2019-06-26T03:23:38.042Z,1015.71
2019-06-26T03:24:38.032Z,1015.72
2019-06-26T03:25:38.034Z,1015.70
2019-06-26T03:26:38.020Z,1015.71
2019-06-26T03:27:37.994Z,1015.73
2019-06-26T03:28:37.991Z,1015.73
2019-06-26T03:29:37.989Z,1015.74
2019-06-26T03:30:37.975Z,1015.70
2019-06-26T03:31:37.987Z,1015.67
2019-06-26T03:32:38.072Z,1015.64
2019-06-26T03:33:37.939Z,1015.62
2019-06-26T03:34:37.916Z,1015.68
2019-06-26T03:35:40.705Z,1015.72
2019-06-26T03:36:37.922Z,1015.71
2019-06-26T03:37:37.882Z,1015.68
2019-06-26T03:38:37.916Z,1015.74
2019-06-26T03:39:37.862Z,1015.68
2019-06-26T03:40:37.854Z,1015.71
2019-06-26T03:41:37.858Z,1015.73
2019-06-26T03:42:37.828Z,1015.73
2019-06-26T03:43:37.824Z,1015.86
2019-06-26T03:44:37.857Z,1015.82
2019-06-26T03:45:37.796Z,1015.85
2019-06-26T03:46:37.808Z,1015.87
2019-06-26T03:47:37.783Z,1015.74
2019-06-26T03:48:37.762Z,1015.78
2019-06-26T03:49:37.757Z,1015.77
2019-06-26T03:50:37.743Z,1015.75
2019-06-26T03:51:37.744Z,1015.78
2019-06-26T03:52:37.728Z,1015.77
2019-06-26T03:53:37.706Z,1015.80
2019-06-26T03:54:37.706Z,1015.81
2019-06-26T03:55:37.691Z,1015.77
2019-06-26T03:56:37.700Z,1015.78
2019-06-26T03:57:37.672Z,1015.81
2019-06-26T03:58:37.657Z,1015.84
2019-06-26T03:59:37.641Z,1015.81
2019-06-26T04:00:37.633Z,1015.87
2019-06-26T04:01:37.644Z,1015.91
2019-06-26T04:02:37.615Z,1015.91
2019-06-26T04:03:37.604Z,1015.91
2019-06-26T04:04:37.591Z,1015.87
2019-06-26T04:05:37.583Z,1015.94
2019-06-26T04:06:37.580Z,1015.97
2019-06-26T04:07:37.561Z,1015.95
2019-06-26T04:08:37.543Z,1015.90
2019-06-26T04:09:37.535Z,1015.90
2019-06-26T04:10:37.531Z,1015.85
2019-06-26T04:11:37.520Z,1015.86
2019-06-26T04:12:37.497Z,1015.84
2019-06-26T04:13:37.497Z,1015.85
2019-06-26T04:14:37.490Z,1015.87
2019-06-26T04:15:42.588Z,1015.91
2019-06-26T04:16:38.469Z,1015.93
2019-06-26T04:17:37.445Z,1015.96
2019-06-26T04:18:37.434Z,1015.90
2019-06-26T04:19:37.424Z,1015.93
2019-06-26T04:20:37.415Z,1015.96
2019-06-26T04:21:37.416Z,1015.99
2019-06-26T04:22:37.404Z,1015.98
2019-06-26T04:23:37.391Z,1015.94
2019-06-26T04:24:37.377Z,1016.06
2019-06-26T04:25:38.428Z,1016.01
2019-06-26T04:26:37.367Z,1016.07
2019-06-26T04:27:37.338Z,1016.07
2019-06-26T04:28:37.334Z,1016.03
2019-06-26T04:29:37.319Z,1016.05
2019-06-26T04:30:37.332Z,1016.03
2019-06-26T04:31:37.376Z,1016.03
2019-06-26T04:32:37.285Z,1016.09
2019-06-26T04:33:37.286Z,1016.07
2019-06-26T04:34:37.265Z,1016.12
2019-06-26T04:35:37.263Z,1016.13
2019-06-26T04:36:37.257Z,1016.07
2019-06-26T04:37:37.235Z,1016.10
2019-06-26T04:38:37.219Z,1016.12
2019-06-26T04:39:37.214Z,1016.08
2019-06-26T04:40:37.202Z,1016.03
2019-06-26T04:41:37.205Z,1016.03
2019-06-26T04:42:37.183Z,1016.10
2019-06-26T04:43:37.171Z,1016.09
2019-06-26T04:44:37.160Z,1016.03
2019-06-26T04:45:37.156Z,1016.02
2019-06-26T04:46:37.149Z,1016.01
2019-06-26T04:47:37.133Z,1016.01
2019-06-26T04:48:37.113Z,1016.02
2019-06-26T04:49:37.105Z,1016.00
2019-06-26T04:50:37.093Z,1016.00
2019-06-26T04:51:37.103Z,1016.02
2019-06-26T04:52:37.079Z,1015.99
2019-06-26T04:53:37.097Z,1015.98
2019-06-26T04:54:37.058Z,1016.03
2019-06-26T04:55:37.044Z,1015.99
2019-06-26T04:56:37.044Z,1015.96
2019-06-26T04:57:37.026Z,1016.00
2019-06-26T04:58:37.011Z,1015.97
2019-06-26T04:59:37.003Z,1016.03
2019-06-26T05:00:36.987Z,1015.98
2019-06-26T05:01:36.991Z,1015.99
2019-06-26T05:02:36.967Z,1015.99
2019-06-26T05:03:36.958Z,1015.95
2019-06-26T05:04:36.960Z,1015.94
2019-06-26T05:05:39.948Z,1015.93
2019-06-26T05:06:36.943Z,1015.94
2019-06-26T05:07:36.918Z,1015.96
2019-06-26T05:08:36.904Z,1016.02
2019-06-26T05:09:36.893Z,1015.99
2019-06-26T05:10:36.906Z,1015.98
2019-06-26T05:11:36.894Z,1015.99
2019-06-26T05:12:36.863Z,1015.94
2019-06-26T05:13:36.854Z,1015.96
2019-06-26T05:14:36.843Z,1015.98
2019-06-26T05:15:36.831Z,1015.99
2019-06-26T05:16:36.832Z,1015.97
2019-06-26T05:17:36.809Z,1015.98
2019-06-26T05:18:36.818Z,1015.94
2019-06-26T05:19:36.789Z,1015.90
2019-06-26T05:20:36.812Z,1015.96
2019-06-26T05:21:36.783Z,1015.88
2019-06-26T05:22:36.770Z,1015.84
2019-06-26T05:23:36.779Z,1015.87
2019-06-26T05:24:36.739Z,1015.86
2019-06-26T05:25:36.731Z,1015.85
2019-06-26T05:26:36.735Z,1015.83
2019-06-26T05:27:36.715Z,1015.88
2019-06-26T05:28:36.698Z,1015.85
2019-06-26T05:29:36.726Z,1015.84
2019-06-26T05:30:36.675Z,1015.84
2019-06-26T05:31:36.684Z,1015.85
2019-06-26T05:32:36.664Z,1015.81
2019-06-26T05:33:36.645Z,1015.80
2019-06-26T05:34:36.637Z,1015.87
2019-06-26T05:35:36.622Z,1015.84
2019-06-26T05:36:36.631Z,1015.80
2019-06-26T05:37:36.602Z,1015.86
2019-06-26T05:38:36.588Z,1015.82
2019-06-26T05:39:36.579Z,1015.85
2019-06-26T05:40:36.571Z,1015.82
2019-06-26T05:41:36.577Z,1015.88
2019-06-26T05:42:36.550Z,1015.87
2019-06-26T05:43:36.537Z,1015.81
2019-06-26T05:44:36.525Z,1015.91
2019-06-26T05:45:36.519Z,1015.86
2019-06-26T05:46:36.519Z,1015.85
2019-06-26T05:47:36.498Z,1015.89
2019-06-26T05:48:36.481Z,1015.93
2019-06-26T05:49:36.471Z,1015.87
2019-06-26T05:50:36.460Z,1015.97
2019-06-26T05:51:36.471Z,1015.95
2019-06-26T05:52:36.448Z,1015.96
2019-06-26T05:53:36.433Z,1015.92
2019-06-26T05:54:36.425Z,1015.87
2019-06-26T05:55:36.408Z,1015.84
2019-06-26T05:56:36.412Z,1015.91
2019-06-26T05:57:36.388Z,1015.86
2019-06-26T05:58:36.374Z,1015.88
2019-06-26T05:59:36.365Z,1015.85
2019-06-26T06:00:36.354Z,1015.87
2019-06-26T06:01:36.362Z,1015.83
2019-06-26T06:02:36.340Z,1015.91
2019-06-26T06:03:36.324Z,1015.88
2019-06-26T06:04:36.312Z,1015.87
2019-06-26T06:05:36.305Z,1015.89
2019-06-26T06:06:41.797Z,1015.87
2019-06-26T06:07:37.285Z,1015.82
2019-06-26T06:08:36.279Z,1015.90
2019-06-26T06:09:36.273Z,1015.92
2019-06-26T06:10:36.255Z,1015.93
2019-06-26T06:11:36.252Z,1015.87
2019-06-26T06:12:36.228Z,1015.87
2019-06-26T06:13:36.249Z,1015.86
2019-06-26T06:14:36.209Z,1015.92
2019-06-26T06:15:36.206Z,1015.89
2019-06-26T06:16:46.928Z,1015.95
2019-06-26T06:17:37.180Z,1015.93
2019-06-26T06:18:36.171Z,1015.97
2019-06-26T06:19:36.167Z,1015.99
2019-06-26T06:20:36.148Z,1015.97
2019-06-26T06:21:36.151Z,1016.02
2019-06-26T06:22:36.126Z,1016.01
2019-06-26T06:23:36.118Z,1016.00
2019-06-26T06:24:36.105Z,1016.02
2019-06-26T06:25:36.094Z,1015.97
2019-06-26T06:26:36.106Z,1016.00
2019-06-26T06:27:36.072Z,1016.09
2019-06-26T06:28:36.064Z,1015.93
2019-06-26T06:29:36.058Z,1016.03
2019-06-26T06:30:36.042Z,1015.99
2019-06-26T06:31:36.048Z,1015.99
2019-06-26T06:32:36.032Z,1015.96
2019-06-26T06:33:36.013Z,1015.89
2019-06-26T06:34:36.002Z,1015.93
2019-06-26T06:35:35.996Z,1015.93
2019-06-26T06:36:36.010Z,1015.93
2019-06-26T06:37:35.972Z,1015.93
2019-06-26T06:38:35.969Z,1015.95
2019-06-26T06:39:35.950Z,1015.95
2019-06-26T06:40:35.942Z,1015.93
2019-06-26T06:41:35.948Z,1016.02
2019-06-26T06:42:35.918Z,1016.01
2019-06-26T06:43:35.935Z,1016.01
2019-06-26T06:44:35.897Z,1016.07
2019-06-26T06:45:35.890Z,1016.05
2019-06-26T06:46:35.892Z,1016.05
2019-06-26T06:47:35.869Z,1016.03
2019-06-26T06:48:35.865Z,1016.01
2019-06-26T06:49:35.852Z,1016.05
2019-06-26T06:50:35.834Z,1016.02
2019-06-26T06:51:35.842Z,1016.05
2019-06-26T06:52:35.818Z,1016.08
2019-06-26T06:53:35.806Z,1016.08
2019-06-26T06:54:35.793Z,1016.03
2019-06-26T06:55:35.782Z,1016.07
2019-06-26T06:56:35.784Z,1016.06
2019-06-26T06:57:35.767Z,1016.02
2019-06-26T06:58:35.752Z,1016.07
2019-06-26T06:59:35.748Z,1016.01
2019-06-26T07:00:35.733Z,1016.08
2019-06-26T07:01:35.733Z,1016.05
2019-06-26T07:02:35.716Z,1016.08
2019-06-26T07:03:35.703Z,1016.10
2019-06-26T07:04:35.694Z,1016.10
2019-06-26T07:05:35.675Z,1016.13
2019-06-26T07:06:35.692Z,1016.13
2019-06-26T07:07:35.655Z,1016.05
2019-06-26T07:08:35.648Z,1016.14
2019-06-26T07:09:35.637Z,1016.04
2019-06-26T07:10:35.672Z,1016.03
2019-06-26T07:11:35.627Z,1016.10
2019-06-26T07:12:35.614Z,1016.04
2019-06-26T07:13:35.600Z,1016.06
2019-06-26T07:14:35.588Z,1016.04
2019-06-26T07:15:35.586Z,1016.12
2019-06-26T07:16:35.601Z,1016.08
2019-06-26T07:17:35.554Z,1016.08
2019-06-26T07:18:35.587Z,1016.10
2019-06-26T07:19:35.537Z,1016.13
2019-06-26T07:20:35.522Z,1016.14
2019-06-26T07:21:35.513Z,1016.14
2019-06-26T07:22:35.515Z,1016.15
2019-06-26T07:23:35.495Z,1016.11
2019-06-26T07:24:35.519Z,1016.10
2019-06-26T07:25:35.483Z,1016.10
2019-06-26T07:26:35.459Z,1016.11
2019-06-26T07:27:35.463Z,1016.10
2019-06-26T07:28:35.440Z,1016.10
2019-06-26T07:29:35.435Z,1016.10
2019-06-26T07:30:35.433Z,1016.12
2019-06-26T07:31:38.423Z,1016.04
2019-06-26T07:32:35.398Z,1016.07
2019-06-26T07:33:35.387Z,1016.05
2019-06-26T07:34:35.386Z,1016.06
2019-06-26T07:35:35.389Z,1016.06
2019-06-26T07:36:35.412Z,1016.15
2019-06-26T07:37:35.353Z,1016.10
2019-06-26T07:38:35.338Z,1016.09
2019-06-26T07:39:35.328Z,1016.11
2019-06-26T07:40:35.358Z,1016.12
2019-06-26T07:41:35.305Z,1016.10
2019-06-26T07:42:35.293Z,1016.08
2019-06-26T07:43:35.289Z,1016.13
2019-06-26T07:44:35.280Z,1016.09
2019-06-26T07:45:35.284Z,1016.09
2019-06-26T07:46:35.261Z,1016.12
2019-06-26T07:47:43.343Z,1016.11
2019-06-26T07:48:36.231Z,1016.13
2019-06-26T07:49:35.226Z,1016.19
2019-06-26T07:50:35.230Z,1016.11
2019-06-26T07:51:35.204Z,1016.16
2019-06-26T07:52:35.190Z,1016.16
2019-06-26T07:53:35.186Z,1016.18
2019-06-26T07:54:35.171Z,1016.14
2019-06-26T07:55:35.183Z,1016.11
2019-06-26T07:56:35.150Z,1016.20
2019-06-26T07:57:35.143Z,1016.23
2019-06-26T07:58:35.134Z,1016.23
2019-06-26T07:59:35.145Z,1016.19
2019-06-26T08:00:35.119Z,1016.23
2019-06-26T08:01:35.132Z,1016.23
2019-06-26T08:02:35.097Z,1016.18
2019-06-26T08:03:35.085Z,1016.14
2019-06-26T08:04:35.069Z,1016.23
2019-06-26T08:05:35.074Z,1016.24
2019-06-26T08:06:35.048Z,1016.23
2019-06-26T08:07:35.042Z,1016.25
2019-06-26T08:08:35.031Z,1016.28
2019-06-26T08:09:35.018Z,1016.19
2019-06-26T08:10:35.027Z,1016.27
2019-06-26T08:11:34.993Z,1016.21
2019-06-26T08:12:35.001Z,1016.22
2019-06-26T08:13:34.974Z,1016.22
2019-06-26T08:14:34.964Z,1016.22
2019-06-26T08:15:34.968Z,1016.24
2019-06-26T08:16:34.943Z,1016.21
2019-06-26T08:17:34.937Z,1016.31
2019-06-26T08:18:34.923Z,1016.21
2019-06-26T08:19:34.915Z,1016.24
2019-06-26T08:20:50.183Z,1016.22
2019-06-26T08:21:35.890Z,1016.26
2019-06-26T08:22:34.883Z,1016.28
2019-06-26T08:23:34.873Z,1016.24
2019-06-26T08:24:34.865Z,1016.27
2019-06-26T08:25:34.862Z,1016.29
2019-06-26T08:26:34.839Z,1016.27
2019-06-26T08:27:34.835Z,1016.29
2019-06-26T08:28:34.824Z,1016.30
2019-06-26T08:29:34.809Z,1016.28
2019-06-26T08:30:34.827Z,1016.30
2019-06-26T08:31:34.793Z,1016.27
2019-06-26T08:32:34.782Z,1016.27
2019-06-26T08:33:34.772Z,1016.32
2019-06-26T08:34:34.768Z,1016.33
2019-06-26T08:35:34.754Z,1016.30
2019-06-26T08:36:34.755Z,1016.27
2019-06-26T08:37:34.735Z,1016.32
2019-06-26T08:38:34.721Z,1016.30
2019-06-26T08:39:34.718Z,1016.31
2019-06-26T08:40:34.699Z,1016.30
2019-06-26T08:41:34.702Z,1016.28
2019-06-26T08:42:34.683Z,1016.33
2019-06-26T08:43:34.666Z,1016.32
2019-06-26T08:44:34.659Z,1016.35
2019-06-26T08:45:34.643Z,1016.34
2019-06-26T08:46:34.652Z,1016.32
2019-06-26T08:47:34.651Z,1016.26
2019-06-26T08:48:40.005Z,1016.21
2019-06-26T08:49:35.605Z,1016.31
2019-06-26T08:50:34.593Z,1016.22
2019-06-26T08:51:34.608Z,1016.29
2019-06-26T08:52:34.573Z,1016.19
2019-06-26T08:53:34.566Z,1016.26
2019-06-26T08:54:34.556Z,1016.25
2019-06-26T08:55:34.544Z,1016.28
2019-06-26T08:56:34.561Z,1016.27
2019-06-26T08:57:34.538Z,1016.28
2019-06-26T08:58:34.514Z,1016.27
2019-06-26T08:59:34.522Z,1016.25
2019-06-26T09:00:34.508Z,1016.27
2019-06-26T09:01:34.489Z,1016.26
2019-06-26T09:02:34.499Z,1016.28
2019-06-26T09:03:34.463Z,1016.26
2019-06-26T09:04:34.467Z,1016.19
2019-06-26T09:05:47.641Z,1016.25
2019-06-26T09:06:35.432Z,1016.27
2019-06-26T09:07:34.440Z,1016.28
2019-06-26T09:08:34.411Z,1016.31
2019-06-26T09:09:34.420Z,1016.33
2019-06-26T09:10:34.403Z,1016.38
2019-06-26T09:11:34.385Z,1016.31
2019-06-26T09:12:34.399Z,1016.28
2019-06-26T09:13:34.359Z,1016.30
2019-06-26T09:14:34.352Z,1016.29
2019-06-26T09:15:34.345Z,1016.30
2019-06-26T09:16:34.340Z,1016.33
2019-06-26T09:17:34.342Z,1016.33
2019-06-26T09:18:36.125Z,1016.28
2019-06-26T09:19:34.303Z,1016.33
2019-06-26T09:20:34.297Z,1016.31
2019-06-26T09:21:34.288Z,1016.32
2019-06-26T09:22:34.306Z,1016.32
2019-06-26T09:23:34.268Z,1016.36
2019-06-26T09:24:34.265Z,1016.34
2019-06-26T09:25:34.249Z,1016.32
2019-06-26T09:26:34.245Z,1016.34
2019-06-26T09:27:34.227Z,1016.27
2019-06-26T09:28:34.243Z,1016.29
2019-06-26T09:29:34.203Z,1016.31
2019-06-26T09:30:34.195Z,1016.34
2019-06-26T09:31:34.194Z,1016.32
2019-06-26T09:32:34.171Z,1016.29
2019-06-26T09:33:34.196Z,1016.31
2019-06-26T09:34:34.153Z,1016.30
2019-06-26T09:35:34.147Z,1016.31
2019-06-26T09:36:34.132Z,1016.27
2019-06-26T09:37:34.125Z,1016.27
2019-06-26T09:38:34.123Z,1016.28
2019-06-26T09:39:34.117Z,1016.28
2019-06-26T09:40:34.112Z,1016.26
2019-06-26T09:41:34.087Z,1016.23
2019-06-26T09:42:34.071Z,1016.27
2019-06-26T09:43:34.104Z,1016.27
2019-06-26T09:44:34.053Z,1016.30
2019-06-26T09:45:34.049Z,1016.23
2019-06-26T09:46:34.047Z,1016.23
2019-06-26T09:47:34.025Z,1016.23
2019-06-26T09:48:34.012Z,1016.21
2019-06-26T09:49:34.021Z,1016.19
2019-06-26T09:50:34.009Z,1016.20
2019-06-26T09:51:33.981Z,1016.18
2019-06-26T09:52:33.973Z,1016.18
2019-06-26T09:53:46.500Z,1016.21
2019-06-26T09:54:34.965Z,1016.16
2019-06-26T09:55:33.937Z,1016.17
2019-06-26T09:56:33.933Z,1016.09
2019-06-26T09:57:33.918Z,1016.16
2019-06-26T09:58:33.916Z,1016.16
2019-06-26T09:59:33.926Z,1016.12
2019-06-26T10:00:33.899Z,1016.11
2019-06-26T10:01:33.875Z,1016.12
2019-06-26T10:02:33.869Z,1016.16
2019-06-26T10:03:33.864Z,1016.18
2019-06-26T10:04:33.863Z,1016.21
2019-06-26T10:05:33.844Z,1016.19
2019-06-26T10:06:33.833Z,1016.18
2019-06-26T10:07:33.817Z,1016.20
2019-06-26T10:08:33.810Z,1016.22
2019-06-26T10:09:33.834Z,1016.17
2019-06-26T10:10:33.786Z,1016.21
2019-06-26T10:11:33.774Z,1016.22
2019-06-26T10:12:33.770Z,1016.14
2019-06-26T10:13:33.822Z,1016.20
2019-06-26T10:14:46.476Z,1016.16
2019-06-26T10:15:34.762Z,1016.12
2019-06-26T10:16:33.724Z,1016.20
2019-06-26T10:17:33.712Z,1016.17
2019-06-26T10:18:33.711Z,1016.21
2019-06-26T10:19:33.694Z,1016.15
2019-06-26T10:20:33.715Z,1016.16
2019-06-26T10:21:33.794Z,1016.16
2019-06-26T10:22:33.664Z,1016.16
2019-06-26T10:23:33.652Z,1016.11
2019-06-26T10:24:33.727Z,1016.12
2019-06-26T10:25:33.818Z,1016.12
2019-06-26T10:26:33.622Z,1016.10
2019-06-26T10:27:33.626Z,1016.07
2019-06-26T10:28:33.650Z,1016.04
2019-06-26T10:29:33.619Z,1015.99
2019-06-26T10:30:33.601Z,1016.05
2019-06-26T10:31:33.573Z,1015.99
2019-06-26T10:32:33.573Z,1016.00
2019-06-26T10:33:33.555Z,1015.99
2019-06-26T10:34:33.541Z,1015.97
2019-06-26T10:35:33.551Z,1016.01
2019-06-26T10:36:33.522Z,1016.01
2019-06-26T10:37:33.516Z,1015.97
2019-06-26T10:38:33.504Z,1016.01
2019-06-26T10:39:33.493Z,1016.03
2019-06-26T10:40:33.504Z,1016.00
2019-06-26T10:41:33.479Z,1015.94
2019-06-26T10:42:33.471Z,1016.01
2019-06-26T10:43:33.460Z,1016.10
2019-06-26T10:44:33.444Z,1016.07
2019-06-26T10:45:36.065Z,1016.05
2019-06-26T10:46:33.426Z,1015.96
2019-06-26T10:47:33.414Z,1015.96
2019-06-26T10:48:33.405Z,1015.92
2019-06-26T10:49:33.384Z,1015.94
2019-06-26T10:50:33.416Z,1015.87
2019-06-26T10:51:33.374Z,1015.88
2019-06-26T10:52:33.357Z,1015.94
2019-06-26T10:53:33.398Z,1015.95
2019-06-26T10:54:33.340Z,1015.91
2019-06-26T10:55:33.364Z,1015.92
2019-06-26T10:56:33.319Z,1015.93
2019-06-26T10:57:33.319Z,1015.88
2019-06-26T10:58:33.296Z,1015.87
2019-06-26T10:59:33.298Z,1015.92
2019-06-26T11:00:33.317Z,1015.85
2019-06-26T11:01:33.267Z,1015.84
2019-06-26T11:02:33.258Z,1015.76
2019-06-26T11:03:33.239Z,1015.85
2019-06-26T11:04:33.228Z,1015.87
2019-06-26T11:05:33.251Z,1015.76
2019-06-26T11:06:36.883Z,1015.84
2019-06-26T11:07:36.309Z,1015.84
2019-06-26T11:08:33.191Z,1015.76
2019-06-26T11:09:33.218Z,1015.76
2019-06-26T11:10:33.219Z,1015.78
2019-06-26T11:11:33.160Z,1015.82
2019-06-26T11:12:33.155Z,1015.80
2019-06-26T11:13:33.139Z,1015.69
2019-06-26T11:14:33.141Z,1015.70
2019-06-26T11:15:33.284Z,1015.79
2019-06-26T11:16:33.140Z,1015.80
2019-06-26T11:17:33.104Z,1015.84
2019-06-26T11:18:33.094Z,1015.72
2019-06-26T11:19:43.258Z,1015.79
2019-06-26T11:20:34.096Z,1015.60
2019-06-26T11:21:33.067Z,1015.60
2019-06-26T11:22:33.051Z,1015.56
2019-06-26T11:23:33.053Z,1015.68
2019-06-26T11:24:33.036Z,1015.77
2019-06-26T11:25:33.056Z,1015.69
2019-06-26T11:26:33.019Z,1015.67
2019-06-26T11:27:33.017Z,1015.61
2019-06-26T11:28:32.988Z,1015.51
2019-06-26T11:29:32.981Z,1015.59
2019-06-26T11:30:32.986Z,1015.60
2019-06-26T11:31:32.962Z,1015.60
2019-06-26T11:32:32.962Z,1015.54
2019-06-26T11:33:32.957Z,1015.53
2019-06-26T11:34:32.932Z,1015.58
2019-06-26T11:35:32.954Z,1015.56
2019-06-26T11:36:32.910Z,1015.46
2019-06-26T11:37:32.898Z,1015.53
2019-06-26T11:38:32.894Z,1015.46
2019-06-26T11:39:32.882Z,1015.49
2019-06-26T11:40:33.782Z,1015.47
2019-06-26T11:41:32.862Z,1015.46
2019-06-26T11:42:32.961Z,1015.50
2019-06-26T11:43:32.838Z,1015.50
2019-06-26T11:44:32.842Z,1015.48
2019-06-26T11:45:32.839Z,1015.45
2019-06-26T11:46:32.816Z,1015.47
2019-06-26T11:47:32.816Z,1015.53
2019-06-26T11:48:32.784Z,1015.41
2019-06-26T11:49:32.782Z,1015.28
2019-06-26T11:50:32.793Z,1015.38
2019-06-26T11:51:32.760Z,1015.38
2019-06-26T11:52:32.753Z,1015.28
2019-06-26T11:53:32.741Z,1015.25
2019-06-26T11:54:32.740Z,1015.34
2019-06-26T11:55:32.741Z,1015.28
2019-06-26T11:56:32.715Z,1015.41
2019-06-26T11:57:32.698Z,1015.41
2019-06-26T11:58:32.692Z,1015.46
2019-06-26T11:59:32.684Z,1015.41
2019-06-26T12:00:32.730Z,1015.37
2019-06-26T12:01:32.665Z,1015.34
2019-06-26T12:02:32.654Z,1015.30
2019-06-26T12:03:32.645Z,1015.35
2019-06-26T12:04:32.634Z,1015.35
2019-06-26T12:05:32.650Z,1015.32